Terminal Aerodrome Forecast
Issued by NWS

Home | Current Version | Previous Version | Text Only | Print | Product List | Glossary On
Versions: 1 2 3 4 5 6 7 8 9 10 11 12 13 14 15 16 17 18 19 20 21 22 23 24 25 26 27 28
000
FTUS43 KDVN 230000 AAA
TAFCID
TAF AMD
KCID 230035Z 2301/2324 18010KT 6SM BR BKN009 OVC015
      TEMPO 2302/2306 2SM BR OVC005
     FM230600 17010KT 1SM BR OVC005
     FM230900 18012KT 1/2SM -DZ FG OVC003
     FM231400 16009KT 3/4SM -RA BR OVC003
     FM231700 15007KT 2SM -RA BR OVC004=

USA.gov is the U.S. government's official web portal to all federal, state and local government web resources and services.